CheckWX is a tool to help pilots better visualize weather data.  It is not intended as a substitute for an official pre-flight weather briefing.

07:42:17 UTC

KGEZ METAR
Shelbyville Municipal Airport
Shelbyville, Indiana, USA
Current

49 mins ago

KGEZ 260653Z AUTO 18007KT 10SM FEW070 22/19 A3002 RMK AO2 SLP158 T02220194
Observed
May-26 @ 06:53 UTC
Wind
  • 180° at 7 KTS
Visibility
10 SM
Flight Rules
VFR
Cloud Levels
  • Few at 7,000' AGL
Temperature
22°C / 72°F
Dewpoint
19°C / 66°F
Humidity
83%
Altimeter
30.02" Hg
Pressure
1016.62 hPa
Previous

2 hours ago

KGEZ 260553Z AUTO 20005KT 10SM CLR 22/19 A3003 RMK AO2 SLP163 T02220189 10289 20222 55000
Observed
May-26 @ 05:53 UTC
Wind
  • 200° at 5 KTS
Visibility
10 SM
Flight Rules
VFR
Cloud Levels
  • Clear skies
Temperature
22°C / 72°F
Dewpoint
19°C / 66°F
Humidity
83%
Altimeter
30.03" Hg
Pressure
1016.92 hPa
Previous

3 hours ago

KGEZ 260453Z AUTO 22006KT 10SM CLR 23/19 A3003 RMK AO2 SLP163 T02280194 403110200
Observed
May-26 @ 04:53 UTC
Wind
  • 220° at 6 KTS
Visibility
10 SM
Flight Rules
VFR
Cloud Levels
  • Clear skies
Temperature
23°C / 73°F
Dewpoint
19°C / 66°F
Humidity
78%
Altimeter
30.03" Hg
Pressure
1016.92 hPa